Time;durP1;ratioP1;P1;durP2;ratioP2;P2;SDS_P1;SDS_P2;PMS_P1;PMS_P2;Temp;Humidity;BMP_temperature;BMP_pressure;BME280_temperature;BME280_humidity;BME280_pressure;Samples;Min_cycle;Max_cycle;Signal;HPM_P1;HPM_P2
2023/11/07 00:00:29;;;;;;;;;;;;;;;6.72;89.27;100223.06;106249;1263;125491;-81
2023/11/07 00:03:16;;;;;;;;;;;;;;;6.71;89.42;100228.80;106364;1260;62077;-82
2023/11/07 00:05:42;;;;;;;;;;;;;;;6.71;89.51;100228.79;106336;1263;125085;-82
2023/11/07 00:08:09;;;;;;;;;;;;;;;6.70;89.47;100234.53;106246;1259;66506;-82
2023/11/07 00:10:37;;;;;;;;;;;;;;;6.69;89.48;100235.17;106268;1272;125600;-82
2023/11/07 00:13:04;;;;;;;;;;;;;;;6.68;89.57;100239.67;106249;1264;62059;-82
2023/11/07 00:15:31;;;;;;;;;;;;;;;6.71;89.81;100243.25;106326;1261;61991;-82
2023/11/07 00:17:58;;;;;;;;;;;;;;;6.78;90.11;100246.64;106148;1261;126483;-81
2023/11/07 00:20:24;;;;;;;;;;;;;;;6.84;90.20;100246.30;106277;1261;65210;-81
2023/11/07 00:22:51;;;;;;;;;;;;;;;6.88;90.11;100247.99;106278;1261;127461;-81
2023/11/07 00:25:18;;;;;;;;;;;;;;;6.90;90.00;100246.84;106491;1261;62147;-81
2023/11/07 00:27:44;;;;;;;;;;;;;;;6.89;89.88;100245.07;106256;1264;62126;-83
2023/11/07 00:30:11;;;;;;;;;;;;;;;6.87;89.84;100246.23;106216;1258;125217;-83
2023/11/07 00:32:39;;;;;;;;;;;;;;;6.85;89.73;100247.71;106593;1263;65021;-83
2023/11/07 00:35:06;;;;;;;;;;;;;;;6.83;89.79;100254.11;106135;1262;125283;-83
2023/11/07 00:37:33;;;;;;;;;;;;;;;6.81;89.70;100250.41;106373;1263;62089;-82
2023/11/07 00:40:00;;;;;;;;;;;;;;;6.82;89.78;100251.65;106341;1263;61966;-82
2023/11/07 00:42:27;;;;;;;;;;;;;;;6.85;89.89;100256.98;106105;1264;125375;-83
2023/11/07 00:44:53;;;;;;;;;;;;;;;6.87;89.94;100261.91;106277;1258;66378;-82
2023/11/07 00:47:20;;;;;;;;;;;;;;;6.86;89.81;100255.77;105987;1267;125209;-82
2023/11/07 00:49:47;;;;;;;;;;;;;;;6.86;89.94;100257.88;106378;1260;62161;-82
2023/11/07 00:52:13;;;;;;;;;;;;;;;6.90;90.15;100254.17;106508;1260;62922;-82
2023/11/07 00:54:40;;;;;;;;;;;;;;;6.96;90.20;100252.60;106252;1260;125174;-82
2023/11/07 00:57:08;;;;;;;;;;;;;;;6.98;90.02;100249.18;106484;1260;66352;-83
2023/11/07 00:59:35;;;;;;;;;;;;;;;6.96;89.83;100250.33;106321;1258;125156;-82
2023/11/07 01:02:03;;;;;;;;;;;;;;;6.92;89.65;100249.17;106269;1258;60069;-82
2023/11/07 01:04:29;;;;;;;;;;;;;;;6.88;89.59;100250.09;106376;1258;125196;-82
2023/11/07 01:06:56;;;;;;;;;;;;;;;6.84;89.54;100253.29;106404;1264;75551;-84
2023/11/07 01:09:23;;;;;;;;;;;;;;;6.81;89.49;100257.02;106676;1257;66848;-85
2023/11/07 01:11:49;;;;;;;;;;;;;;;6.77;89.43;100259.67;106366;1257;124920;-83
2023/11/07 01:14:16;;;;;;;;;;;;;;;6.72;89.48;100260.39;106381;1257;60139;-85
2023/11/07 01:16:42;;;;;;;;;;;;;;;6.69;89.65;100264.31;106148;1264;125233;-85
2023/11/07 01:19:10;;;;;;;;;;;;;;;6.67;89.64;100261.61;106464;1258;74077;-85
2023/11/07 01:21:36;;;;;;;;;;;;;;;6.64;89.70;100260.30;106258;1261;64947;-84
2023/11/07 01:24:03;;;;;;;;;;;;;;;6.61;89.72;100262.13;106071;1264;125179;-84
2023/11/07 01:26:30;;;;;;;;;;;;;;;6.59;89.80;100266.26;106253;1263;60393;-82
2023/11/07 01:28:57;;;;;;;;;;;;;;;6.58;89.80;100267.94;106500;1260;125514;-83
2023/11/07 01:31:24;;;;;;;;;;;;;;;6.53;89.73;100263.77;106370;1259;74204;-82
2023/11/07 01:33:51;;;;;;;;;;;;;;;6.50;89.78;100264.38;106292;1257;64895;-82
2023/11/07 01:36:17;;;;;;;;;;;;;;;6.48;89.88;100264.98;106325;1260;125374;-85
2023/11/07 01:38:44;;;;;;;;;;;;;;;6.45;89.96;100265.95;106351;1261;62119;-83
2023/11/07 01:41:10;;;;;;;;;;;;;;;6.42;89.97;100263.40;106244;1263;125513;-81
2023/11/07 01:43:37;;;;;;;;;;;;;;;6.39;89.92;100264.88;106328;1257;74181;-84
2023/11/07 01:46:04;;;;;;;;;;;;;;;6.38;90.03;100266.23;106284;1262;66074;-83
2023/11/07 01:48:31;;;;;;;;;;;;;;;6.36;90.14;100264.77;106138;1257;125780;-83
2023/11/07 01:50:58;;;;;;;;;;;;;;;6.33;90.11;100265.20;106304;1258;60419;-83
2023/11/07 01:53:25;;;;;;;;;;;;;;;6.32;90.15;100264.80;106231;1264;125869;-84
2023/11/07 01:55:51;;;;;;;;;;;;;;;6.30;90.29;100264.58;106350;1257;73426;-84
2023/11/07 01:58:19;;;;;;;;;;;;;;;6.29;90.27;100270.45;106230;1274;65113;-83
2023/11/07 02:00:45;;;;;;;;;;;;;;;6.28;90.40;100265.71;106268;1257;124842;-84
2023/11/07 02:03:12;;;;;;;;;;;;;;;6.26;90.40;100268.08;106346;1257;60020;-84
2023/11/07 02:05:40;;;;;;;;;;;;;;;6.23;90.21;100273.02;106261;1258;124126;-84
2023/11/07 02:08:09;;;;;;;;;;;;;;;6.20;90.21;100272.95;106401;1258;74184;-83
2023/11/07 02:10:37;;;;;;;;;;;;;;;6.17;90.14;100276.83;106209;1263;126209;-84
2023/11/07 02:13:03;;;;;;;;;;;;;;;6.13;90.11;100280.20;106173;1263;72518;-84
2023/11/07 02:15:31;;;;;;;;;;;;;;;6.11;90.18;100280.64;106389;1257;62097;-84
2023/11/07 02:17:58;;;;;;;;;;;;;;;6.08;90.28;100276.17;106190;1257;125518;-83
2023/11/07 02:20:25;;;;;;;;;;;;;;;6.05;90.24;100277.45;106234;1257;74107;-83
2023/11/07 02:22:53;;;;;;;;;;;;;;;6.02;90.25;100274.58;106281;1260;125190;-83
2023/11/07 02:25:19;;;;;;;;;;;;;;;5.99;90.34;100277.62;106291;1266;72428;-83
2023/11/07 02:27:48;;;;;;;;;;;;;;;5.98;90.50;100277.03;106228;1257;62078;-81
2023/11/07 02:30:15;;;;;;;;;;;;;;;5.97;90.33;100282.23;106321;1261;125193;-81
2023/11/07 02:32:42;;;;;;;;;;;;;;;5.94;90.39;100281.23;106482;1257;76752;-82
2023/11/07 02:35:10;;;;;;;;;;;;;;;5.93;90.40;100284.83;106149;1258;125926;-83
2023/11/07 02:37:38;;;;;;;;;;;;;;;5.91;90.60;100282.52;106312;1258;72437;-83
2023/11/07 02:40:06;;;;;;;;;;;;;;;5.91;90.60;100285.10;106287;1258;62067;-83
2023/11/07 02:42:33;;;;;;;;;;;;;;;5.90;90.61;100280.70;106063;1257;125171;-83
2023/11/07 02:44:59;;;;;;;;;;;;;;;5.89;90.72;100281.36;106291;1263;76722;-83
2023/11/07 02:47:26;;;;;;;;;;;;;;;5.89;90.68;100287.30;106261;1263;125004;-83
2023/11/07 02:49:53;;;;;;;;;;;;;;;5.88;90.74;100287.78;106222;1261;72488;-82
2023/11/07 02:52:20;;;;;;;;;;;;;;;5.88;90.72;100287.44;106346;1260;61812;-82
2023/11/07 02:54:48;;;;;;;;;;;;;;;5.87;90.81;100286.17;106366;1262;127584;-82
2023/11/07 02:57:15;;;;;;;;;;;;;;;5.87;90.89;100289.67;106866;1260;74312;-82
2023/11/07 02:59:47;;;;;;;;;;;;;;;5.88;90.87;100290.20;106173;1260;125176;-81
2023/11/07 03:02:17;;;;;;;;;;;;;;;5.86;90.83;100291.73;106530;1257;71643;-82
2023/11/07 03:04:43;;;;;;;;;;;;;;;5.87;90.91;100291.76;106368;1260;125198;-81
2023/11/07 03:07:11;;;;;;;;;;;;;;;5.88;91.01;100290.93;106277;1263;62528;-84
2023/11/07 03:09:37;;;;;;;;;;;;;;;5.89;90.99;100291.65;106363;1261;74390;-86
2023/11/07 03:12:04;;;;;;;;;;;;;;;5.89;91.07;100291.65;106242;1260;125250;-86
2023/11/07 03:14:32;;;;;;;;;;;;;;;5.89;91.05;100296.17;106265;1260;72631;-86
2023/11/07 03:16:58;;;;;;;;;;;;;;;5.90;91.01;100299.86;106131;1258;125187;-86
2023/11/07 03:19:25;;;;;;;;;;;;;;;5.91;91.06;100300.10;106306;1258;62075;-85
2023/11/07 03:21:52;;;;;;;;;;;;;;;5.93;91.10;100298.92;106368;1260;74190;-86
2023/11/07 03:24:19;;;;;;;;;;;;;;;5.95;91.28;100299.02;106265;1258;124996;-86
2023/11/07 03:26:46;;;;;;;;;;;;;;;6.00;91.28;100299.23;106401;1259;72725;-86
2023/11/07 03:29:12;;;;;;;;;;;;;;;6.04;91.42;100295.70;106257;1260;124112;-84
2023/11/07 03:31:39;;;;;;;;;;;;;;;6.12;91.37;100295.11;106352;1259;62636;-85
2023/11/07 03:34:06;;;;;;;;;;;;;;;6.21;91.65;100295.27;106277;1258;75548;-86
2023/11/07 03:36:33;;;;;;;;;;;;;;;6.30;91.73;100296.46;106223;1263;125295;-86
2023/11/07 03:38:59;;;;;;;;;;;;;;;6.38;91.55;100300.75;106329;1260;72746;-86
2023/11/07 03:41:26;;;;;;;;;;;;;;;6.46;91.50;100301.02;106255;1263;125422;-86
2023/11/07 03:43:53;;;;;;;;;;;;;;;6.53;91.38;100297.95;106376;1257;61929;-85
2023/11/07 03:46:20;;;;;;;;;;;;;;;6.61;91.41;100299.59;106384;1257;75344;-86
2023/11/07 03:48:47;;;;;;;;;;;;;;;6.69;91.39;100299.68;106284;1260;125467;-86
2023/11/07 03:51:13;;;;;;;;;;;;;;;6.75;91.26;100301.48;106257;1257;72568;-85
2023/11/07 03:53:41;;;;;;;;;;;;;;;6.80;91.04;100301.30;106243;1257;125314;-85
2023/11/07 03:56:08;;;;;;;;;;;;;;;6.88;90.91;100305.55;106404;1257;60180;-84
2023/11/07 03:58:35;;;;;;;;;;;;;;;6.92;90.80;100307.77;106310;1257;125258;-83
2023/11/07 04:01:02;;;;;;;;;;;;;;;6.96;90.70;100303.02;106601;1262;65560;-85
2023/11/07 04:03:29;;;;;;;;;;;;;;;7.01;90.62;100296.92;106289;1262;72794;-85
2023/11/07 04:05:56;;;;;;;;;;;;;;;7.06;90.52;100293.02;106171;1257;125267;-85
2023/11/07 04:08:23;;;;;;;;;;;;;;;7.08;90.40;100300.80;106356;1260;60875;-85
2023/11/07 04:10:49;;;;;;;;;;;;;;;7.12;90.33;100302.66;106215;1257;125261;-85
2023/11/07 04:13:16;;;;;;;;;;;;;;;7.16;90.24;100305.91;106250;1263;66291;-85
2023/11/07 04:15:42;;;;;;;;;;;;;;;7.18;90.09;100299.36;106363;1257;72687;-86
2023/11/07 04:18:10;;;;;;;;;;;;;;;7.20;89.95;100299.78;106272;1257;125163;-85
2023/11/07 04:20:37;;;;;;;;;;;;;;;7.24;89.94;100305.83;106379;1257;62079;-85
2023/11/07 04:23:04;;;;;;;;;;;;;;;7.25;89.84;100308.13;106182;1257;125631;-85
2023/11/07 04:25:31;;;;;;;;;;;;;;;7.27;89.80;100307.14;106245;1260;65003;-85
2023/11/07 04:27:58;;;;;;;;;;;;;;;7.28;89.72;100311.03;106532;1257;72385;-85
2023/11/07 04:30:24;;;;;;;;;;;;;;;7.30;89.59;100312.11;106416;1258;125147;-85
2023/11/07 04:32:51;;;;;;;;;;;;;;;7.30;89.52;100308.82;106281;1257;62057;-84
2023/11/07 04:35:18;;;;;;;;;;;;;;;7.32;89.49;100313.95;106234;1258;125585;-85
2023/11/07 04:37:44;;;;;;;;;;;;;;;7.35;89.50;100314.89;106451;1256;64604;-85
2023/11/07 04:40:11;;;;;;;;;;;;;;;7.36;89.38;100314.91;106376;1263;72598;-85
2023/11/07 04:42:38;;;;;;;;;;;;;;;7.38;89.34;100316.74;106196;1260;125210;-85
2023/11/07 04:45:07;;;;;;;;;;;;;;;7.40;89.21;100316.10;106235;1258;60542;-84
2023/11/07 04:47:33;;;;;;;;;;;;;;;7.41;89.20;100314.57;106211;1257;125309;-85
2023/11/07 04:50:00;;;;;;;;;;;;;;;7.43;89.07;100310.92;106452;1257;64766;-87
2023/11/07 04:52:26;;;;;;;;;;;;;;;7.45;89.16;100308.04;106337;1262;72656;-82
2023/11/07 04:54:53;;;;;;;;;;;;;;;7.48;89.12;100310.56;106390;1257;125837;-82
2023/11/07 04:57:21;;;;;;;;;;;;;;;7.50;89.05;100305.22;106456;1257;60748;-83
2023/11/07 04:59:47;;;;;;;;;;;;;;;7.53;89.07;100303.06;106450;1257;125692;-84
2023/11/07 05:02:15;;;;;;;;;;;;;;;7.59;89.12;100311.25;106478;1263;66798;-85
2023/11/07 05:04:45;;;;;;;;;;;;;;;7.64;89.14;100308.08;106321;1258;125302;-84
2023/11/07 05:07:13;;;;;;;;;;;;;;;7.69;88.99;100315.23;106558;1258;61998;-83
2023/11/07 05:09:39;;;;;;;;;;;;;;;7.72;88.87;100315.99;106555;1261;62074;-84
2023/11/07 05:12:06;;;;;;;;;;;;;;;7.76;88.90;100323.11;106407;1258;125469;-84
2023/11/07 05:14:33;;;;;;;;;;;;;;;7.82;88.84;100322.23;106497;1261;66121;-85
2023/11/07 05:16:59;;;;;;;;;;;;;;;7.84;88.71;100325.42;106485;1256;125355;-87
2023/11/07 05:19:26;;;;;;;;;;;;;;;7.85;88.60;100327.56;106512;1257;62096;-86
2023/11/07 05:21:53;;;;;;;;;;;;;;;7.85;88.50;100330.90;106640;1257;62739;-86
2023/11/07 05:24:19;;;;;;;;;;;;;;;7.85;88.33;100331.23;106588;1257;125034;-86
2023/11/07 05:26:46;;;;;;;;;;;;;;;7.85;88.25;100330.88;106401;1258;66247;-84
2023/11/07 05:29:13;;;;;;;;;;;;;;;7.85;88.29;100330.02;106259;1257;126076;-77
2023/11/07 05:31:40;;;;;;;;;;;;;;;7.87;88.25;100332.50;106602;1257;62087;-76
2023/11/07 05:34:07;;;;;;;;;;;;;;;7.88;88.24;100336.39;105795;1260;62150;-78
2023/11/07 05:36:34;;;;;;;;;;;;;;;7.87;88.14;100341.59;105519;1257;125314;-76
2023/11/07 05:39:01;;;;;;;;;;;;;;;7.85;88.07;100341.91;105627;1258;66243;-78
2023/11/07 05:41:28;;;;;;;;;;;;;;;7.84;87.97;100346.39;106260;1257;125254;-80
2023/11/07 05:43:54;;;;;;;;;;;;;;;7.81;87.95;100350.67;106368;1257;62179;-82
2023/11/07 05:46:23;;;;;;;;;;;;;;;7.77;87.81;100358.60;106498;1256;60076;-82
2023/11/07 05:48:51;;;;;;;;;;;;;;;7.73;87.79;100357.60;106712;1257;126632;-83
2023/11/07 05:51:19;;;;;;;;;;;;;;;7.69;87.75;100362.55;106416;1256;66274;-82
2023/11/07 05:53:45;;;;;;;;;;;;;;;7.66;87.80;100364.55;106374;1261;125417;-83
2023/11/07 05:56:12;;;;;;;;;;;;;;;7.63;87.80;100367.10;106490;1260;62052;-82
2023/11/07 05:58:40;;;;;;;;;;;;;;;7.62;87.84;100367.22;106312;1256;126006;-82
2023/11/07 06:01:06;;;;;;;;;;;;;;;7.64;87.96;100371.64;106531;1256;76485;-82
2023/11/07 06:03:33;;;;;;;;;;;;;;;7.66;88.01;100371.02;106441;1256;65249;-81
2023/11/07 06:06:00;;;;;;;;;;;;;;;7.68;88.09;100375.79;106190;1262;126096;-81
2023/11/07 06:08:27;;;;;;;;;;;;;;;7.69;88.02;100375.66;106435;1256;62400;-81
2023/11/07 06:10:54;;;;;;;;;;;;;;;7.70;88.02;100376.02;106334;1258;126182;-81
2023/11/07 06:13:20;;;;;;;;;;;;;;;7.70;88.08;100379.54;106762;1257;73258;-81
2023/11/07 06:15:47;;;;;;;;;;;;;;;7.71;87.96;100384.45;106895;1256;66406;-83
2023/11/07 06:18:14;;;;;;;;;;;;;;;7.71;87.84;100389.85;106670;1256;125863;-83
2023/11/07 06:20:41;;;;;;;;;;;;;;;7.69;87.78;100402.54;106621;1260;62071;-87
2023/11/07 06:23:08;;;;;;;;;;;;;;;7.66;87.73;100403.85;106462;1256;125896;-87
2023/11/07 06:25:34;;;;;;;;;;;;;;;7.65;87.71;100406.07;106876;1258;74080;-85
2023/11/07 06:28:03;;;;;;;;;;;;;;;7.64;87.81;100402.38;106405;1257;67599;-83
2023/11/07 06:30:31;;;;;;;;;;;;;;;7.65;87.77;100403.45;106353;1263;125213;-81
2023/11/07 06:33:00;;;;;;;;;;;;;;;7.64;87.81;100397.84;108550;1257;59992;-80
2023/11/07 06:35:27;;;;;;;;;;;;;;;7.63;87.68;100396.05;106292;1257;125296;-81
2023/11/07 06:37:54;;;;;;;;;;;;;;;7.62;87.73;100396.55;106380;1257;74397;-80
2023/11/07 06:40:21;;;;;;;;;;;;;;;7.64;87.82;100402.36;106215;1263;66319;-79
2023/11/07 06:42:48;;;;;;;;;;;;;;;7.67;87.84;100411.37;106300;1261;125692;-80
2023/11/07 06:45:15;;;;;;;;;;;;;;;7.69;87.90;100413.89;106817;1257;61923;-84
2023/11/07 06:47:42;;;;;;;;;;;;;;;7.71;87.83;100415.85;107496;1257;125771;-81
2023/11/07 06:50:09;;;;;;;;;;;;;;;7.73;87.91;100418.59;106527;1257;74201;-81
2023/11/07 06:52:49;;;;;;;;;;;;;;;7.76;87.89;100421.11;106426;1257;125249;-81
2023/11/07 06:55:19;;;;;;;;;;;;;;;7.80;87.92;100426.11;106966;1257;71415;-81
2023/11/07 06:57:46;;;;;;;;;;;;;;;7.83;87.88;100430.90;106616;1261;62171;-84
2023/11/07 07:00:13;;;;;;;;;;;;;;;7.83;87.68;100430.72;106203;1257;125854;-84
2023/11/07 07:02:40;;;;;;;;;;;;;;;7.81;87.62;100435.58;106233;1257;74725;-84
2023/11/07 07:05:12;;;;;;;;;;;;;;;7.81;87.53;100435.40;106196;1262;126060;-80
2023/11/07 07:07:42;;;;;;;;;;;;;;;7.78;87.49;100441.23;106421;1257;72608;-83
2023/11/07 07:10:09;;;;;;;;;;;;;;;7.78;87.54;100445.42;106380;1258;62677;-81
2023/11/07 07:12:36;;;;;;;;;;;;;;;7.82;87.73;100449.23;106256;1260;125666;-80
2023/11/07 07:15:05;;;;;;;;;;;;;;;7.88;87.72;100453.26;106635;1257;76023;-80
2023/11/07 07:17:32;;;;;;;;;;;;;;;7.93;87.89;100455.34;106783;1256;125519;-80
2023/11/07 07:19:59;;;;;;;;;;;;;;;8.02;88.04;100462.44;106481;1256;72488;-80
2023/11/07 07:22:29;;;;;;;;;;;;;;;8.13;88.11;100460.67;106482;1258;62111;-81
2023/11/07 07:24:56;;;;;;;;;;;;;;;8.26;88.09;100462.96;106336;1257;125268;-80
2023/11/07 07:27:29;;;;;;;;;;;;;;;8.39;88.08;100463.70;106359;1257;74697;-84
2023/11/07 07:29:56;;;;;;;;;;;;;;;8.49;87.96;100460.02;106381;1257;125230;-83
2023/11/07 07:32:24;;;;;;;;;;;;;;;8.60;87.92;100462.42;106453;1257;72766;-84
2023/11/07 07:34:50;;;;;;;;;;;;;;;8.71;87.76;100465.16;106460;1257;125900;-84
2023/11/07 07:37:20;;;;;;;;;;;;;;;8.83;87.80;100459.36;106498;1260;62058;-83
2023/11/07 07:39:47;;;;;;;;;;;;;;;8.97;87.74;100463.24;106507;1257;75069;-84
2023/11/07 07:42:17;;;;;;;;;;;;;;;9.13;87.76;100466.48;106381;1258;125345;-84
2023/11/07 07:44:43;;;;;;;;;;;;;;;9.28;87.73;100468.97;106478;1260;72430;-83
2023/11/07 07:47:10;;;;;;;;;;;;;;;9.42;87.36;100466.70;106244;1258;126596;-83
2023/11/07 07:49:37;;;;;;;;;;;;;;;9.54;87.35;100468.75;106372;1258;61952;-83
2023/11/07 07:52:10;;;;;;;;;;;;;;;9.69;87.33;100469.45;106363;1263;75427;-83
2023/11/07 07:54:37;;;;;;;;;;;;;;;9.84;87.03;100467.17;106266;1261;125223;-83
2023/11/07 07:57:08;;;;;;;;;;;;;;;9.96;86.75;100471.12;106439;1258;71992;-84
2023/11/07 07:59:40;;;;;;;;;;;;;;;10.09;86.63;100470.56;106171;1258;125100;-84
2023/11/07 08:02:07;;;;;;;;;;;;;;;10.22;86.40;100471.89;106348;1257;62057;-84
2023/11/07 08:04:34;;;;;;;;;;;;;;;10.35;86.13;100472.55;106357;1258;125483;-83
2023/11/07 08:07:00;;;;;;;;;;;;;;;10.44;85.92;100472.41;106427;1257;64220;-84
2023/11/07 08:09:28;;;;;;;;;;;;;;;10.53;85.55;100470.83;106404;1261;72743;-84
2023/11/07 08:11:56;;;;;;;;;;;;;;;10.59;85.22;100472.54;106333;1257;126081;-84
2023/11/07 08:14:23;;;;;;;;;;;;;;;10.66;85.06;100471.80;106372;1256;61987;-84
2023/11/07 08:16:50;;;;;;;;;;;;;;;10.78;85.09;100468.52;106210;1257;125449;-84
2023/11/07 08:19:17;;;;;;;;;;;;;;;10.88;85.02;100466.61;106306;1257;65648;-84
2023/11/07 08:21:44;;;;;;;;;;;;;;;10.93;84.58;100468.45;106384;1257;71933;-84
2023/11/07 08:24:13;;;;;;;;;;;;;;;10.97;84.19;100472.92;106110;1258;125540;-84
2023/11/07 08:26:39;;;;;;;;;;;;;;;11.01;84.10;100470.71;106394;1257;62015;-84
2023/11/07 08:29:06;;;;;;;;;;;;;;;11.06;84.09;100475.90;106231;1258;125865;-84
2023/11/07 08:31:33;;;;;;;;;;;;;;;11.09;83.79;100475.61;106383;1258;64672;-84
2023/11/07 08:34:00;;;;;;;;;;;;;;;11.12;83.62;100481.44;106500;1257;71759;-84
2023/11/07 08:36:27;;;;;;;;;;;;;;;11.15;83.60;100484.31;106394;1258;126293;-84
2023/11/07 08:38:54;;;;;;;;;;;;;;;11.15;83.19;100481.86;106426;1257;62094;-85
2023/11/07 08:41:23;;;;;;;;;;;;;;;11.12;82.91;100487.77;106265;1257;125326;-85
2023/11/07 08:43:51;;;;;;;;;;;;;;;11.06;82.73;100489.06;106406;1257;66321;-84
2023/11/07 08:46:19;;;;;;;;;;;;;;;10.97;82.48;100492.40;106462;1258;71418;-84
2023/11/07 08:48:45;;;;;;;;;;;;;;;10.89;82.43;100499.98;106356;1257;124103;-84
2023/11/07 08:51:15;;;;;;;;;;;;;;;10.82;82.30;100508.97;106435;1257;60134;-85
2023/11/07 08:53:42;;;;;;;;;;;;;;;10.72;82.29;100505.09;106445;1256;124745;-84
2023/11/07 08:56:09;;;;;;;;;;;;;;;10.62;82.28;100507.17;106615;1259;64965;-84
2023/11/07 08:58:36;;;;;;;;;;;;;;;10.57;82.42;100508.29;106231;1258;125023;-83
2023/11/07 09:01:04;;;;;;;;;;;;;;;10.57;82.54;100506.52;106476;1257;60794;-84
2023/11/07 09:03:31;;;;;;;;;;;;;;;10.67;82.83;100513.40;106452;1257;62128;-84
2023/11/07 09:05:58;;;;;;;;;;;;;;;10.77;82.83;100520.11;106342;1256;124523;-84
2023/11/07 09:08:26;;;;;;;;;;;;;;;10.86;82.92;100521.16;106252;1258;64998;-84
2023/11/07 09:10:54;;;;;;;;;;;;;;;11.03;83.02;100520.98;106318;1257;125966;-83
2023/11/07 09:13:23;;;;;;;;;;;;;;;11.25;83.14;100517.88;106404;1257;61992;-82
2023/11/07 09:15:49;;;;;;;;;;;;;;;11.40;82.59;100521.13;106457;1261;62023;-80
2023/11/07 09:18:16;;;;;;;;;;;;;;;11.48;82.29;100525.48;106495;1261;125181;-80
2023/11/07 09:20:44;;;;;;;;;;;;;;;11.61;82.35;100529.23;106421;1258;195994;-80
2023/11/07 09:23:11;;;;;;;;;;;;;;;11.73;81.98;100527.84;106401;1258;126064;-81
2023/11/07 09:25:38;;;;;;;;;;;;;;;11.75;81.41;100530.52;106262;1257;60156;-81
2023/11/07 09:28:04;;;;;;;;;;;;;;;11.81;81.36;100528.69;106322;1258;62141;-80
2023/11/07 09:30:33;;;;;;;;;;;;;;;11.93;81.35;100535.41;106254;1257;125497;-79
2023/11/07 09:33:01;;;;;;;;;;;;;;;12.03;81.00;100539.45;106380;1259;65018;-82
2023/11/07 09:35:29;;;;;;;;;;;;;;;12.09;80.75;100539.02;106474;1258;126061;-81
2023/11/07 09:37:55;;;;;;;;;;;;;;;12.11;80.47;100542.39;106362;1263;62257;-80
2023/11/07 09:40:25;;;;;;;;;;;;;;;12.15;80.33;100541.20;106518;1257;62166;-85
2023/11/07 09:42:52;;;;;;;;;;;;;;;12.20;80.17;100541.64;106448;1256;124911;-84
2023/11/07 09:45:18;;;;;;;;;;;;;;;12.23;79.94;100543.98;106286;1257;65122;-81
2023/11/07 09:47:48;;;;;;;;;;;;;;;12.29;79.76;100544.23;106336;1258;124678;-82
2023/11/07 09:50:16;;;;;;;;;;;;;;;12.33;79.65;100541.63;106429;1257;61974;-84
2023/11/07 09:52:46;;;;;;;;;;;;;;;12.37;79.59;100538.55;106379;1262;125918;-84
2023/11/07 09:55:15;;;;;;;;;;;;;;;12.45;79.49;100533.02;106360;1264;75519;-84
2023/11/07 09:57:42;;;;;;;;;;;;;;;12.42;78.95;100534.21;106629;1257;66280;-82
2023/11/07 10:00:09;;;;;;;;;;;;;;;12.26;78.55;100531.17;106384;1258;125121;-84
2023/11/07 10:02:36;;;;;;;;;;;;;;;12.03;78.19;100528.70;106441;1264;62149;-83
2023/11/07 10:05:05;;;;;;;;;;;;;;;11.81;78.28;100528.68;106471;1257;126014;-84
2023/11/07 10:07:31;;;;;;;;;;;;;;;11.67;78.54;100528.28;106404;1261;74768;-84
2023/11/07 10:10:02;;;;;;;;;;;;;;;11.60;78.71;100525.86;106312;1257;66267;-84
2023/11/07 10:12:29;;;;;;;;;;;;;;;11.52;78.79;100526.95;106116;1256;125395;-84
2023/11/07 10:14:57;;;;;;;;;;;;;;;11.45;78.84;100525.43;106540;1258;62090;-85
2023/11/07 10:17:23;;;;;;;;;;;;;;;11.42;79.10;100528.02;106395;1256;125255;-85
2023/11/07 10:20:05;;;;;;;;;;;;;;;11.42;79.13;100524.14;106449;1260;73975;-85
2023/11/07 10:22:44;;;;;;;;;;;;;;;11.38;79.01;100518.98;106476;1257;65015;-84
2023/11/07 10:25:49;;;;;;;;;;;;;;;11.34;78.97;100519.63;106216;1258;71403;-84
2023/11/07 10:28:17;;;;;;;;;;;;;;;11.29;78.80;100517.25;106032;1265;62576;-83
2023/11/07 10:30:44;;;;;;;;;;;;;;;11.27;79.00;100517.04;105870;1264;125427;-83
2023/11/07 10:33:12;;;;;;;;;;;;;;;11.26;78.99;100517.55;105927;1265;75549;-83
2023/11/07 10:35:52;;;;;;;;;;;;;;;11.26;78.97;100524.21;105857;1264;125292;-84
2023/11/07 10:38:19;;;;;;;;;;;;;;;11.25;78.90;100523.83;106088;1270;72462;-84
2023/11/07 10:40:47;;;;;;;;;;;;;;;11.24;78.98;100524.89;105899;1267;125054;-84
2023/11/07 10:43:25;;;;;;;;;;;;;;;11.31;79.07;100531.15;106030;1264;61005;-81
2023/11/07 10:45:52;;;;;;;;;;;;;;;11.38;79.09;100533.39;105895;1264;75571;-80
2023/11/07 10:48:19;;;;;;;;;;;;;;;11.40;78.87;100539.23;105951;1264;125400;-80
2023/11/07 10:50:46;;;;;;;;;;;;;;;11.44;78.68;100537.70;105940;1265;71805;-80
2023/11/07 10:53:16;;;;;;;;;;;;;;;11.56;78.80;100538.11;105818;1265;126377;-81
2023/11/07 10:55:42;;;;;;;;;;;;;;;11.75;78.75;100537.02;105992;1266;61963;-81
2023/11/07 10:58:09;;;;;;;;;;;;;;;11.96;78.75;100546.71;105921;1267;73696;-81
2023/11/07 11:00:36;;;;;;;;;;;;;;;12.16;78.57;100544.04;105826;1267;125353;-80
2023/11/07 11:03:04;;;;;;;;;;;;;;;12.30;78.31;100547.23;105928;1267;72482;-80
2023/11/07 11:05:31;;;;;;;;;;;;;;;12.40;77.91;100548.27;106291;1256;126040;-81
2023/11/07 11:07:59;;;;;;;;;;;;;;;12.42;77.37;100548.65;106373;1261;62060;-83
2023/11/07 11:10:29;;;;;;;;;;;;;;;12.43;77.07;100550.08;106380;1258;75534;-83
2023/11/07 11:12:56;;;;;;;;;;;;;;;12.44;77.06;100546.21;106467;1259;125185;-84
2023/11/07 11:15:23;;;;;;;;;;;;;;;12.46;76.76;100542.89;106486;1257;71780;-81
2023/11/07 11:17:55;;;;;;;;;;;;;;;12.45;76.55;100543.92;106326;1257;123798;-81
2023/11/07 11:20:35;;;;;;;;;;;;;;;12.37;76.32;100545.05;106526;1257;62077;-82
2023/11/07 11:23:03;;;;;;;;;;;;;;;12.24;76.16;100543.45;106216;1257;125229;-81
2023/11/07 11:25:48;;;;;;;;;;;;;;;12.16;76.27;100544.91;106428;1258;66321;-81
2023/11/07 11:28:15;;;;;;;;;;;;;;;12.08;76.33;100550.42;106494;1258;72526;-81
2023/11/07 11:30:42;;;;;;;;;;;;;;;12.03;76.39;100550.70;106188;1264;124531;-81
2023/11/07 11:33:09;;;;;;;;;;;;;;;11.97;76.44;100545.49;106400;1257;62062;-81
2023/11/07 11:35:38;;;;;;;;;;;;;;;12.00;76.60;100554.88;106405;1257;125663;-80
2023/11/07 11:38:20;;;;;;;;;;;;;;;12.02;76.63;100562.13;106473;1260;66278;-80
2023/11/07 11:40:51;;;;;;;;;;;;;;;11.99;76.52;100566.64;106379;1258;126254;-80
2023/11/07 11:43:18;;;;;;;;;;;;;;;12.04;76.73;100571.64;106397;1258;62177;-84
2023/11/07 11:45:45;;;;;;;;;;;;;;;12.19;77.11;100572.40;106369;1262;62376;-85
2023/11/07 11:48:12;;;;;;;;;;;;;;;12.35;77.00;100571.41;106329;1258;127004;-84
2023/11/07 11:50:39;;;;;;;;;;;;;;;12.41;76.69;100573.09;106333;1258;64225;-84
2023/11/07 11:53:09;;;;;;;;;;;;;;;12.47;76.67;100575.83;106337;1262;125565;-81
2023/11/07 11:55:55;;;;;;;;;;;;;;;12.50;76.36;100575.51;106468;1258;61917;-85
2023/11/07 11:58:25;;;;;;;;;;;;;;;12.51;76.25;100577.64;106482;1258;62110;-85
2023/11/07 12:00:52;;;;;;;;;;;;;;;12.56;76.28;100578.77;106241;1263;124423;-84
2023/11/07 12:03:19;;;;;;;;;;;;;;;12.62;76.27;100575.33;106325;1258;65969;-85
2023/11/07 12:06:00;;;;;;;;;;;;;;;12.68;76.21;100576.45;106226;1258;125144;-85
2023/11/07 12:08:32;;;;;;;;;;;;;;;12.75;76.14;100577.09;106477;1258;60344;-84
2023/11/07 12:10:58;;;;;;;;;;;;;;;12.79;76.09;100577.66;106281;1258;124960;-83
2023/11/07 12:13:25;;;;;;;;;;;;;;;12.81;75.92;100574.53;106495;1262;74214;-85
2023/11/07 12:15:53;;;;;;;;;;;;;;;12.84;75.79;100572.96;106484;1258;66282;-84
2023/11/07 12:18:22;;;;;;;;;;;;;;;12.88;75.71;100571.62;106225;1258;125348;-84
2023/11/07 12:20:50;;;;;;;;;;;;;;;12.90;75.60;100569.88;106304;1262;62045;-85
2023/11/07 12:23:16;;;;;;;;;;;;;;;12.83;75.21;100568.20;106188;1258;125485;-84
2023/11/07 12:25:52;;;;;;;;;;;;;;;12.72;75.11;100569.98;106414;1258;75682;-84
2023/11/07 12:28:19;;;;;;;;;;;;;;;12.63;75.25;100565.65;106373;1259;66066;-84
2023/11/07 12:30:52;;;;;;;;;;;;;;;12.51;74.94;100561.63;106327;1257;125278;-84